Reboly, Russia
Current Conditions -  °F | °C
As of 3:50 AM on Tuesday 23 Dec 2014 (Local Time) from EFJO Reporting Station
Light Snow Light Snow  
Wind Chill:   Ceiling: 900
Heat Index: 16°   Visibility: 3mi
Dew Point: 14°   Wind: 6mph
Humidity: 93%   Direction: 40°NE
Pressure: 29.21"   Gusts: NA
Location:  63.83°N, 30.8°E
Report Text: EFJO 230050Z AUTO 04005KT 010V070 5000 -SN BKN009 M09/M10 Q0989
Loading
Personal Weather Stations






























Interactive Weather Map New forecast layout! Learn more

10-Day Weather Forecast

Advertisements
Track Severe Weather on mobile